Terminal Aerodrome Forecast
Issued by NWS Spokane, WA

Home | Current Version | Previous Version | Text Only | Print | Product List | Glossary On
Versions: 1 2 3 4 5 6 7 8 9 10 11 12
000
FTUS46 KOTX 230529
TAFGEG
TAF
KGEG 230529Z 2306/2406 VRB05KT P6SM SCT070 BKN100
     FM230900 05006KT P6SM FEW100
     FM231900 15007KT P6SM SCT070 BKN150
     FM240000 18006KT P6SM VCSH SCT050 BKN090 BKN150=

USA.gov is the U.S. government's official web portal to all federal, state and local government web resources and services.